createdAt,value
2022-12-09T00:01:24.246Z,2.19
2022-12-09T00:03:51.214Z,2.19
2022-12-09T00:06:26.663Z,2.25
2022-12-09T00:08:54.671Z,2.28
2022-12-09T00:11:22.615Z,2.28
2022-12-09T00:13:50.881Z,2.32
2022-12-09T00:16:17.669Z,2.34
2022-12-09T00:18:45.367Z,2.36
2022-12-09T00:21:20.668Z,2.36
2022-12-09T00:23:48.181Z,2.35
2022-12-09T00:26:15.412Z,2.31
2022-12-09T00:28:42.541Z,2.33
2022-12-09T00:31:13.537Z,2.33
2022-12-09T00:33:40.492Z,2.31
2022-12-09T00:36:12.484Z,2.32
2022-12-09T00:38:39.328Z,2.32
2022-12-09T00:41:06.183Z,2.32
2022-12-09T00:43:33.576Z,2.30
2022-12-09T00:46:00.772Z,2.30
2022-12-09T00:48:28.246Z,2.29
2022-12-09T00:50:55.385Z,2.27
2022-12-09T00:53:22.040Z,2.30
2022-12-09T00:55:48.770Z,2.31
2022-12-09T00:58:16.067Z,2.30
2022-12-09T01:00:43.019Z,2.30
2022-12-09T01:03:17.863Z,2.31
2022-12-09T01:05:44.573Z,2.32
2022-12-09T01:08:12.918Z,2.32
2022-12-09T01:10:41.528Z,2.29
2022-12-09T01:13:08.603Z,2.28
2022-12-09T01:15:36.693Z,2.28
2022-12-09T01:18:05.683Z,2.25
2022-12-09T01:20:33.590Z,2.21
2022-12-09T01:23:01.105Z,2.16
2022-12-09T01:25:27.843Z,2.11
2022-12-09T01:27:54.505Z,2.01
2022-12-09T01:30:21.113Z,1.88
2022-12-09T01:32:47.844Z,1.78
2022-12-09T01:35:14.902Z,1.66
2022-12-09T01:37:41.669Z,1.55
2022-12-09T01:40:15.542Z,1.50
2022-12-09T01:42:44.356Z,1.46
2022-12-09T01:45:20.168Z,1.46
2022-12-09T01:48:11.330Z,1.42
2022-12-09T01:50:40.053Z,1.39
2022-12-09T01:53:07.528Z,1.36
2022-12-09T01:55:35.396Z,1.34
2022-12-09T01:58:03.300Z,1.33
2022-12-09T02:00:30.351Z,1.24
2022-12-09T02:02:57.536Z,1.16
2022-12-09T02:05:25.333Z,1.12
2022-12-09T02:07:52.871Z,1.09
2022-12-09T02:10:20.471Z,1.08
2022-12-09T02:13:08.992Z,1.05
2022-12-09T02:15:49.739Z,1.08
2022-12-09T02:18:25.979Z,1.09
2022-12-09T02:21:04.538Z,1.12
2022-12-09T02:24:03.687Z,1.16
2022-12-09T02:26:48.512Z,1.19
2022-12-09T02:29:24.051Z,1.19
2022-12-09T02:31:57.101Z,1.12
2022-12-09T02:34:30.659Z,1.12
2022-12-09T02:36:57.314Z,1.05
2022-12-09T02:39:38.841Z,1.00
2022-12-09T02:42:09.950Z,0.98
2022-12-09T02:44:39.474Z,0.85
2022-12-09T02:47:10.239Z,0.70
2022-12-09T02:49:38.933Z,0.58
2022-12-09T02:52:06.975Z,0.51
2022-12-09T02:54:37.172Z,0.47
2022-12-09T02:57:14.016Z,0.41
2022-12-09T02:59:40.648Z,0.40
2022-12-09T03:02:19.804Z,0.40
2022-12-09T03:04:55.296Z,0.38
2022-12-09T03:07:46.901Z,0.30
2022-12-09T03:10:23.613Z,0.20
2022-12-09T03:13:00.371Z,0.15
2022-12-09T03:15:30.709Z,0.15
2022-12-09T03:18:00.118Z,0.09
2022-12-09T03:20:30.446Z,0.08
2022-12-09T03:23:00.944Z,0.01
2022-12-09T03:25:34.457Z,-0.02
2022-12-09T03:28:06.226Z,-0.02
2022-12-09T03:30:37.389Z,-0.04
2022-12-09T03:33:04.657Z,-0.06
2022-12-09T03:35:42.712Z,-0.13
2022-12-09T03:38:11.574Z,-0.14
2022-12-09T03:40:39.451Z,-0.18
2022-12-09T03:43:14.011Z,-0.19
2022-12-09T03:45:41.687Z,-0.20
2022-12-09T03:48:10.295Z,-0.24
2022-12-09T03:50:47.312Z,-0.34
2022-12-09T03:53:18.570Z,-0.37
2022-12-09T03:55:52.131Z,-0.38
2022-12-09T03:58:20.453Z,-0.37
2022-12-09T04:00:49.390Z,-0.36
2022-12-09T04:03:18.655Z,-0.37
2022-12-09T04:05:45.701Z,-0.40
2022-12-09T04:08:12.379Z,-0.43
2022-12-09T04:10:38.954Z,-0.42
2022-12-09T04:13:05.769Z,-0.45
2022-12-09T04:15:32.486Z,-0.45
2022-12-09T04:17:59.829Z,-0.42
2022-12-09T04:20:26.619Z,-0.40
2022-12-09T04:22:53.110Z,-0.41
2022-12-09T04:25:19.641Z,-0.44
2022-12-09T04:27:46.804Z,-0.44
2022-12-09T04:30:14.049Z,-0.50
2022-12-09T04:32:41.256Z,-0.51
2022-12-09T04:35:08.890Z,-0.51
2022-12-09T04:37:37.551Z,-0.53
2022-12-09T04:40:06.779Z,-0.56
2022-12-09T04:42:34.088Z,-0.57
2022-12-09T04:45:00.942Z,-0.55
2022-12-09T04:47:27.883Z,-0.56
2022-12-09T04:49:54.882Z,-0.57
2022-12-09T04:52:21.594Z,-0.58
2022-12-09T04:54:50.911Z,-0.56
2022-12-09T04:57:18.618Z,-0.59
2022-12-09T04:59:45.817Z,-0.59
2022-12-09T05:02:12.828Z,-0.56
2022-12-09T05:04:40.306Z,-0.53
2022-12-09T05:07:07.138Z,-0.52
2022-12-09T05:09:34.462Z,-0.54
2022-12-09T05:12:01.196Z,-0.57
2022-12-09T05:14:28.077Z,-0.54
2022-12-09T05:16:56.119Z,-0.55
2022-12-09T05:19:23.542Z,-0.49
2022-12-09T05:21:50.822Z,-0.47
2022-12-09T05:24:17.423Z,-0.48
2022-12-09T05:26:44.614Z,-0.47
2022-12-09T05:29:11.633Z,-0.43
2022-12-09T05:31:38.480Z,-0.44
2022-12-09T05:34:05.405Z,-0.44
2022-12-09T05:36:32.356Z,-0.42
2022-12-09T05:38:59.208Z,-0.40
2022-12-09T05:41:26.148Z,-0.37
2022-12-09T05:43:53.227Z,-0.38
2022-12-09T05:46:20.745Z,-0.32
2022-12-09T05:48:47.735Z,-0.30
2022-12-09T05:51:26.346Z,-0.27
2022-12-09T05:53:54.851Z,-0.26
2022-12-09T05:56:24.314Z,-0.26
2022-12-09T05:58:52.728Z,-0.31
2022-12-09T06:01:20.235Z,-0.34
2022-12-09T06:03:49.307Z,-0.33
2022-12-09T06:06:18.828Z,-0.30
2022-12-09T06:08:46.715Z,-0.26
2022-12-09T06:11:21.548Z,-0.24
2022-12-09T06:13:49.832Z,-0.22
2022-12-09T06:16:19.716Z,-0.21
2022-12-09T06:18:47.580Z,-0.23
2022-12-09T06:21:16.396Z,-0.26
2022-12-09T06:23:43.602Z,-0.22
2022-12-09T06:26:19.692Z,-0.15
2022-12-09T06:28:46.846Z,-0.11
2022-12-09T06:31:13.997Z,-0.11
2022-12-09T06:33:58.685Z,-0.08
2022-12-09T06:36:28.889Z,-0.06
2022-12-09T06:38:56.993Z,-0.01
2022-12-09T06:41:24.639Z,0.04
2022-12-09T06:43:52.040Z,0.02
2022-12-09T06:46:23.694Z,0.05
2022-12-09T06:48:51.390Z,0.07
2022-12-09T06:51:19.025Z,0.11
2022-12-09T06:53:46.841Z,0.14
2022-12-09T06:56:14.985Z,0.15
2022-12-09T06:58:44.391Z,0.19
2022-12-09T07:01:14.244Z,0.21
2022-12-09T07:03:43.277Z,0.15
2022-12-09T07:06:26.281Z,0.01
2022-12-09T07:08:54.103Z,0.03
2022-12-09T07:11:20.993Z,0.00
2022-12-09T07:13:47.958Z,-0.03
2022-12-09T07:16:14.962Z,-0.06
2022-12-09T07:18:42.346Z,-0.03
2022-12-09T07:21:17.484Z,-0.03
2022-12-09T07:23:45.372Z,-0.03
2022-12-09T07:26:12.622Z,-0.01
2022-12-09T07:28:47.344Z,0.01
2022-12-09T07:31:19.755Z,-0.02
2022-12-09T07:33:47.650Z,-0.01
2022-12-09T07:36:19.166Z,-0.04
2022-12-09T07:38:48.318Z,-0.05
2022-12-09T07:41:18.346Z,-0.07
2022-12-09T07:43:46.261Z,-0.08
2022-12-09T07:46:14.967Z,-0.07
2022-12-09T07:48:41.947Z,-0.05
2022-12-09T07:51:09.225Z,-0.09
2022-12-09T07:53:37.315Z,-0.10
2022-12-09T07:56:06.806Z,-0.12
2022-12-09T07:58:34.260Z,-0.13
2022-12-09T08:01:08.803Z,-0.11
2022-12-09T08:03:36.678Z,-0.17
2022-12-09T08:06:03.876Z,-0.19
2022-12-09T08:08:33.002Z,-0.20
2022-12-09T08:11:18.208Z,-0.22
2022-12-09T08:13:45.685Z,-0.28
2022-12-09T08:16:15.941Z,-0.27
2022-12-09T08:18:43.229Z,-0.29
2022-12-09T08:21:16.731Z,-0.27
2022-12-09T08:23:44.293Z,-0.26
2022-12-09T08:26:13.567Z,-0.27
2022-12-09T08:28:40.503Z,-0.28
2022-12-09T08:31:13.455Z,-0.28
2022-12-09T08:33:41.133Z,-0.28
2022-12-09T08:36:17.993Z,-0.27
2022-12-09T08:38:44.974Z,-0.27
2022-12-09T08:41:14.896Z,-0.27
2022-12-09T08:43:42.911Z,-0.32
2022-12-09T08:46:10.447Z,-0.28
2022-12-09T08:48:40.945Z,-0.30
2022-12-09T08:51:09.192Z,-0.28
2022-12-09T08:53:35.920Z,-0.30
2022-12-09T08:56:13.817Z,-0.28
2022-12-09T08:58:41.484Z,-0.27
2022-12-09T09:01:15.168Z,-0.23
2022-12-09T09:03:42.815Z,-0.25
2022-12-09T09:06:11.097Z,-0.21
2022-12-09T09:08:39.231Z,-0.18
2022-12-09T09:11:14.460Z,-0.13
2022-12-09T09:13:42.928Z,-0.07
2022-12-09T09:16:15.805Z,-0.16
2022-12-09T09:18:42.875Z,-0.08
2022-12-09T09:21:11.737Z,-0.03
2022-12-09T09:23:38.760Z,0.05
2022-12-09T09:26:14.613Z,-0.02
2022-12-09T09:28:41.885Z,-0.10
2022-12-09T09:31:12.382Z,-0.20
2022-12-09T09:33:39.871Z,-0.23
2022-12-09T09:36:11.522Z,-0.24
2022-12-09T09:38:38.900Z,-0.21
2022-12-09T09:41:34.015Z,-0.20
2022-12-09T09:44:02.004Z,-0.18
2022-12-09T09:46:40.916Z,-0.17
2022-12-09T09:49:14.697Z,-0.13
2022-12-09T09:51:42.022Z,-0.07
2022-12-09T09:54:13.273Z,0.00
2022-12-09T09:56:47.168Z,0.08
2022-12-09T09:59:55.134Z,0.20
2022-12-09T10:02:47.145Z,0.18
2022-12-09T10:05:24.284Z,0.24
2022-12-09T10:08:03.007Z,0.36
2022-12-09T10:10:57.591Z,0.44
2022-12-09T10:13:44.169Z,0.42
2022-12-09T10:16:32.111Z,0.52
2022-12-09T10:19:04.209Z,0.63
2022-12-09T10:21:40.264Z,0.79
2022-12-09T10:24:17.681Z,1.07
2022-12-09T10:26:58.558Z,1.13
2022-12-09T10:29:54.233Z,1.09
2022-12-09T10:32:24.661Z,1.05
2022-12-09T10:34:51.453Z,1.05
2022-12-09T10:37:32.260Z,1.13
2022-12-09T10:40:31.575Z,1.21
2022-12-09T10:43:17.717Z,1.29
2022-12-09T10:46:23.122Z,1.39
2022-12-09T10:48:50.448Z,1.49
2022-12-09T10:51:20.666Z,1.59
2022-12-09T10:53:52.411Z,1.58
2022-12-09T10:56:32.448Z,1.49
2022-12-09T10:59:24.037Z,1.55
2022-12-09T11:01:52.769Z,1.58
2022-12-09T11:04:30.058Z,1.67
2022-12-09T11:07:02.272Z,1.73
2022-12-09T11:09:32.251Z,1.73
2022-12-09T11:12:00.453Z,1.74
2022-12-09T11:14:34.990Z,1.76
2022-12-09T11:17:17.655Z,1.85
2022-12-09T11:19:49.757Z,1.86
2022-12-09T11:22:41.217Z,1.97
2022-12-09T11:25:11.142Z,1.95
2022-12-09T11:27:38.152Z,2.04
2022-12-09T11:30:09.500Z,2.15
2022-12-09T11:32:58.610Z,2.19
2022-12-09T11:35:43.970Z,2.09
2022-12-09T11:38:17.407Z,2.13
2022-12-09T11:40:59.369Z,2.20
2022-12-09T11:43:43.702Z,2.25
2022-12-09T11:46:13.229Z,2.30
2022-12-09T11:49:05.932Z,2.29
2022-12-09T11:51:34.674Z,2.28
2022-12-09T11:54:10.881Z,2.31
2022-12-09T11:56:38.692Z,2.29
2022-12-09T11:59:12.019Z,2.30
2022-12-09T12:02:05.926Z,2.32
2022-12-09T12:04:53.177Z,2.38
2022-12-09T12:07:38.453Z,2.45
2022-12-09T12:10:10.134Z,2.41
2022-12-09T12:13:00.251Z,2.47
2022-12-09T12:15:31.823Z,2.48
2022-12-09T12:18:03.393Z,2.52
2022-12-09T12:20:41.082Z,2.57
2022-12-09T12:23:32.306Z,2.50
2022-12-09T12:26:08.764Z,2.42
2022-12-09T12:29:01.290Z,2.42
2022-12-09T12:31:51.608Z,2.45
2022-12-09T12:34:41.440Z,2.44
2022-12-09T12:37:31.215Z,2.48
2022-12-09T12:40:07.150Z,2.57
2022-12-09T12:43:05.855Z,2.54
2022-12-09T12:46:13.706Z,2.52
2022-12-09T12:49:04.916Z,2.52
2022-12-09T12:51:51.036Z,2.54
2022-12-09T12:54:26.706Z,2.65
2022-12-09T12:57:09.675Z,2.69
2022-12-09T12:59:55.347Z,2.74
2022-12-09T13:02:27.536Z,2.76
2022-12-09T13:05:03.622Z,2.79
2022-12-09T13:07:45.967Z,2.80
2022-12-09T13:10:38.613Z,2.81
2022-12-09T13:13:15.086Z,2.80
2022-12-09T13:15:49.459Z,2.80
2022-12-09T13:18:24.375Z,2.80
2022-12-09T13:20:56.692Z,2.83
2022-12-09T13:23:54.727Z,2.86
2022-12-09T13:26:30.274Z,2.88
2022-12-09T13:29:30.609Z,2.91
2022-12-09T13:32:02.276Z,2.86
2022-12-09T13:34:36.348Z,2.85
2022-12-09T13:37:02.963Z,2.90
2022-12-09T13:39:41.596Z,2.94
2022-12-09T13:42:46.268Z,2.97
2022-12-09T13:45:23.492Z,3.00
2022-12-09T13:47:53.340Z,3.03
2022-12-09T13:50:49.513Z,3.03
2022-12-09T13:53:18.925Z,3.02
2022-12-09T13:56:08.226Z,3.02
2022-12-09T13:59:13.196Z,2.99
2022-12-09T14:01:57.586Z,2.99
2022-12-09T14:04:43.306Z,2.90
2022-12-09T14:07:28.368Z,2.88
2022-12-09T14:09:57.328Z,2.91
2022-12-09T14:12:26.760Z,2.93
2022-12-09T14:15:18.906Z,2.92
2022-12-09T14:17:46.247Z,2.92
2022-12-09T14:20:21.372Z,2.81
2022-12-09T14:23:06.602Z,2.71
2022-12-09T14:25:36.081Z,2.66
2022-12-09T14:28:11.761Z,2.65
2022-12-09T14:30:40.894Z,2.60
2022-12-09T14:33:30.745Z,2.50
2022-12-09T14:36:13.258Z,2.48
2022-12-09T14:41:56.832Z,2.49
2022-12-09T14:44:31.414Z,2.47
2022-12-09T14:47:16.709Z,2.46
2022-12-09T14:49:49.123Z,2.38
2022-12-09T14:52:29.015Z,2.33
2022-12-09T14:54:58.166Z,2.31
2022-12-09T14:57:28.785Z,2.19
2022-12-09T14:59:56.687Z,2.04
2022-12-09T15:02:34.298Z,1.96
2022-12-09T15:05:02.400Z,1.88
2022-12-09T15:07:33.587Z,1.76
2022-12-09T15:10:20.954Z,1.69
2022-12-09T15:12:56.091Z,1.58
2022-12-09T15:15:26.643Z,1.55
2022-12-09T15:18:04.769Z,1.55
2022-12-09T15:20:40.695Z,1.53
2022-12-09T15:23:15.347Z,1.52
2022-12-09T15:25:54.999Z,1.48
2022-12-09T15:28:27.743Z,1.45
2022-12-09T15:31:00.743Z,1.45
2022-12-09T15:33:30.915Z,1.41
2022-12-09T15:36:09.355Z,1.40
2022-12-09T15:38:44.466Z,1.38
2022-12-09T15:41:29.713Z,1.35
2022-12-09T15:44:02.770Z,1.35
2022-12-09T15:46:31.808Z,1.26
2022-12-09T15:49:02.685Z,1.21
2022-12-09T15:51:30.313Z,1.15
2022-12-09T15:54:04.012Z,1.13
2022-12-09T15:56:41.590Z,1.09
2022-12-09T15:59:28.196Z,1.07
2022-12-09T16:01:57.427Z,1.00
2022-12-09T16:04:35.018Z,0.99
2022-12-09T16:07:06.918Z,0.93
2022-12-09T16:09:36.758Z,0.90
2022-12-09T16:12:03.438Z,0.90
2022-12-09T16:14:43.947Z,0.88
2022-12-09T16:17:50.266Z,0.85
2022-12-09T16:20:41.256Z,0.81
2022-12-09T16:23:21.463Z,0.79
2022-12-09T16:25:49.958Z,0.74
2022-12-09T16:28:22.758Z,0.69
2022-12-09T16:30:50.970Z,0.62
2022-12-09T16:33:24.367Z,0.59
2022-12-09T16:36:03.177Z,0.53
2022-12-09T16:38:31.449Z,0.49
2022-12-09T16:41:00.687Z,0.47
2022-12-09T16:43:28.772Z,0.46
2022-12-09T16:46:13.433Z,0.43
2022-12-09T16:48:41.207Z,0.37
2022-12-09T16:51:19.237Z,0.38
2022-12-09T16:53:51.737Z,0.37
2022-12-09T16:56:24.779Z,0.32
2022-12-09T16:58:52.409Z,0.28
2022-12-09T17:01:20.722Z,0.20
2022-12-09T17:03:55.728Z,0.16
2022-12-09T17:06:22.256Z,0.04
2022-12-09T17:08:49.335Z,-0.01
2022-12-09T17:11:17.251Z,-0.04
2022-12-09T17:13:43.798Z,-0.05
2022-12-09T17:16:10.895Z,-0.02
2022-12-09T17:18:37.761Z,-0.03
2022-12-09T17:21:08.296Z,-0.08
2022-12-09T17:23:39.676Z,-0.13
2022-12-09T17:26:09.468Z,-0.17
2022-12-09T17:28:37.003Z,-0.17
2022-12-09T17:31:10.643Z,-0.21
2022-12-09T17:33:37.673Z,-0.23
2022-12-09T17:36:05.617Z,-0.28
2022-12-09T17:38:32.133Z,-0.32
2022-12-09T17:41:17.978Z,-0.34
2022-12-09T17:43:44.921Z,-0.35
2022-12-09T17:46:12.293Z,-0.39
2022-12-09T17:48:40.229Z,-0.40
2022-12-09T17:51:12.364Z,-0.46
2022-12-09T17:53:40.838Z,-0.47
2022-12-09T17:56:29.655Z,-0.44
2022-12-09T17:59:08.457Z,-0.46
2022-12-09T18:01:36.386Z,-0.46
2022-12-09T18:04:09.431Z,-0.53
2022-12-09T18:06:38.730Z,-0.53
2022-12-09T18:09:07.029Z,-0.54
2022-12-09T18:11:34.383Z,-0.56
2022-12-09T18:14:01.179Z,-0.59
2022-12-09T18:16:27.848Z,-0.60
2022-12-09T18:18:54.846Z,-0.60
2022-12-09T18:21:21.510Z,-0.62
2022-12-09T18:23:48.855Z,-0.65
2022-12-09T18:26:17.645Z,-0.67
2022-12-09T18:28:44.397Z,-0.69
2022-12-09T18:31:15.736Z,-0.73
2022-12-09T18:33:42.645Z,-0.73
2022-12-09T18:36:16.794Z,-0.74
2022-12-09T18:38:44.158Z,-0.75
2022-12-09T18:41:13.504Z,-0.74
2022-12-09T18:43:42.522Z,-0.77
2022-12-09T18:46:14.893Z,-0.77
2022-12-09T18:48:41.501Z,-0.77
2022-12-09T18:51:18.752Z,-0.79
2022-12-09T18:53:45.976Z,-0.79
2022-12-09T18:56:13.484Z,-0.85
2022-12-09T18:59:04.699Z,-0.89
2022-12-09T19:01:29.959Z,-0.88
2022-12-09T19:03:58.797Z,-0.90
2022-12-09T19:06:34.039Z,-0.95
2022-12-09T19:09:04.621Z,-0.94
2022-12-09T19:11:33.395Z,-0.94
2022-12-09T19:14:00.404Z,-0.99
2022-12-09T19:16:28.833Z,-1.02
2022-12-09T19:18:56.144Z,-1.05
2022-12-09T19:21:24.565Z,-1.07
2022-12-09T19:23:51.774Z,-1.05
2022-12-09T19:26:20.538Z,-1.07
2022-12-09T19:28:52.890Z,-1.08
2022-12-09T19:31:26.939Z,-1.10
2022-12-09T19:33:55.784Z,-1.13
2022-12-09T19:36:23.737Z,-1.16
2022-12-09T19:38:50.951Z,-1.20
2022-12-09T19:41:18.361Z,-1.25
2022-12-09T19:43:45.696Z,-1.25
2022-12-09T19:46:14.072Z,-1.26
2022-12-09T19:48:44.114Z,-1.26
2022-12-09T19:51:13.108Z,-1.31
2022-12-09T19:53:40.430Z,-1.31
2022-12-09T19:56:10.783Z,-1.32
2022-12-09T19:58:38.995Z,-1.36
2022-12-09T20:01:34.137Z,-1.38
2022-12-09T20:04:19.326Z,-1.39
2022-12-09T20:06:53.588Z,-1.38
2022-12-09T20:09:24.347Z,-1.40
2022-12-09T20:11:54.951Z,-1.40
2022-12-09T20:14:21.571Z,-1.40
2022-12-09T20:16:48.190Z,-1.40
2022-12-09T20:19:19.657Z,-1.39
2022-12-09T20:21:46.194Z,-1.40
2022-12-09T20:24:12.698Z,-1.42
2022-12-09T20:26:39.341Z,-1.40
2022-12-09T20:29:08.358Z,-1.39
2022-12-09T20:31:36.807Z,-1.45
2022-12-09T20:34:06.874Z,-1.54
2022-12-09T20:36:35.837Z,-1.56
2022-12-09T20:39:05.872Z,-1.53
2022-12-09T20:41:32.606Z,-1.49
2022-12-09T20:44:00.164Z,-1.52
2022-12-09T20:46:29.885Z,-1.54
2022-12-09T20:48:57.525Z,-1.55
2022-12-09T20:51:29.635Z,-1.58
2022-12-09T20:53:57.093Z,-1.61
2022-12-09T20:56:25.783Z,-1.62
2022-12-09T20:58:53.650Z,-1.63
2022-12-09T21:01:22.765Z,-1.63
2022-12-09T21:03:50.358Z,-1.63
2022-12-09T21:06:19.235Z,-1.62
2022-12-09T21:08:45.852Z,-1.64
2022-12-09T21:11:17.809Z,-1.66
2022-12-09T21:13:49.804Z,-1.67
2022-12-09T21:16:22.877Z,-1.67
2022-12-09T21:18:51.325Z,-1.66
2022-12-09T21:21:19.379Z,-1.67
2022-12-09T21:23:46.046Z,-1.64
2022-12-09T21:26:15.448Z,-1.63
2022-12-09T21:28:43.473Z,-1.63
2022-12-09T21:31:14.216Z,-1.60
2022-12-09T21:33:45.016Z,-1.58
2022-12-09T21:36:14.632Z,-1.55
2022-12-09T21:38:41.493Z,-1.51
2022-12-09T21:41:18.170Z,-1.52
2022-12-09T21:43:45.660Z,-1.53
2022-12-09T21:46:16.271Z,-1.50
2022-12-09T21:48:43.177Z,-1.49
2022-12-09T21:51:11.097Z,-1.49
2022-12-09T21:53:37.941Z,-1.48
2022-12-09T21:56:13.212Z,-1.42
2022-12-09T21:58:39.747Z,-1.38
2022-12-09T22:01:15.109Z,-1.38
2022-12-09T22:03:42.474Z,-1.37
2022-12-09T22:06:10.310Z,-1.38
2022-12-09T22:08:38.374Z,-1.42
2022-12-09T22:11:25.391Z,-1.44
2022-12-09T22:13:52.369Z,-1.48
2022-12-09T22:16:25.891Z,-1.45
2022-12-09T22:18:54.877Z,-1.45
2022-12-09T22:21:26.905Z,-1.44
2022-12-09T22:23:55.682Z,-1.46
2022-12-09T22:26:23.395Z,-1.48
2022-12-09T22:28:50.587Z,-1.47
2022-12-09T22:31:22.616Z,-1.45
2022-12-09T22:33:51.036Z,-1.46
2022-12-09T22:36:18.295Z,-1.46
2022-12-09T22:38:44.859Z,-1.47
2022-12-09T22:41:14.579Z,-1.48
2022-12-09T22:43:42.358Z,-1.53
2022-12-09T22:46:12.255Z,-1.57
2022-12-09T22:48:39.569Z,-1.58
2022-12-09T22:51:15.995Z,-1.55
2022-12-09T22:53:42.734Z,-1.54
2022-12-09T22:56:11.103Z,-1.51
2022-12-09T22:58:38.006Z,-1.49
2022-12-09T23:01:12.413Z,-1.51
2022-12-09T23:03:40.134Z,-1.47
2022-12-09T23:06:07.616Z,-1.45
2022-12-09T23:08:35.104Z,-1.40
2022-12-09T23:11:23.219Z,-1.38
2022-12-09T23:13:52.448Z,-1.34
2022-12-09T23:16:21.397Z,-1.30
2022-12-09T23:18:48.514Z,-1.28
2022-12-09T23:21:26.788Z,-1.25
2022-12-09T23:23:55.957Z,-1.22
2022-12-09T23:26:25.676Z,-1.20
2022-12-09T23:28:54.347Z,-1.19
2022-12-09T23:31:24.819Z,-1.18
2022-12-09T23:33:52.715Z,-1.18
2022-12-09T23:36:26.999Z,-1.18
2022-12-09T23:38:54.220Z,-1.18
2022-12-09T23:41:22.793Z,-1.20
2022-12-09T23:43:50.078Z,-1.19
2022-12-09T23:46:19.807Z,-1.19
2022-12-09T23:48:50.977Z,-1.19
2022-12-09T23:51:18.812Z,-1.21
2022-12-09T23:53:46.960Z,-1.20
2022-12-09T23:56:15.220Z,-1.19
2022-12-09T23:58:45.238Z,-1.21
